sensor_id;sensor_type;location;lat;lon;timestamp;P1;durP1;ratioP1;P2;durP2;ratioP2
42884;SDS011;28534;48.100;11.584;2022-12-07T04:02:52;2.10;;;1.90;;
42884;SDS011;28534;48.100;11.584;2022-12-07T04:07:54;2.10;;;1.90;;
42884;SDS011;28534;48.100;11.584;2022-12-07T04:12:56;2.55;;;2.20;;
42884;SDS011;28534;48.100;11.584;2022-12-07T04:17:59;2.03;;;1.85;;
42884;SDS011;28534;48.100;11.584;2022-12-07T04:23:04;2.60;;;2.00;;
42884;SDS011;28534;48.100;11.584;2022-12-07T04:28:05;2.70;;;1.95;;
42884;SDS011;28534;48.100;11.584;2022-12-07T04:33:08;2.03;;;1.83;;
42884;SDS011;28534;48.100;11.584;2022-12-07T04:38:10;2.00;;;1.77;;
42884;SDS011;28534;48.100;11.584;2022-12-07T04:43:12;1.67;;;1.52;;
42884;SDS011;28534;48.100;11.584;2022-12-07T04:48:15;2.00;;;1.90;;
42884;SDS011;28534;48.100;11.584;2022-12-07T04:53:17;2.03;;;1.73;;
42884;SDS011;28534;48.100;11.584;2022-12-07T04:58:19;1.85;;;1.67;;
42884;SDS011;28534;48.100;11.584;2022-12-07T05:03:22;1.80;;;1.70;;
42884;SDS011;28534;48.100;11.584;2022-12-07T05:08:24;1.95;;;1.75;;
42884;SDS011;28534;48.100;11.584;2022-12-07T05:13:26;1.80;;;1.70;;
42884;SDS011;28534;48.100;11.584;2022-12-07T05:18:29;2.20;;;2.00;;
42884;SDS011;28534;48.100;11.584;2022-12-07T05:23:31;1.90;;;1.80;;
42884;SDS011;28534;48.100;11.584;2022-12-07T05:28:34;1.80;;;1.70;;
42884;SDS011;28534;48.100;11.584;2022-12-07T05:33:37;1.92;;;1.70;;
42884;SDS011;28534;48.100;11.584;2022-12-07T05:38:39;2.67;;;1.70;;
42884;SDS011;28534;48.100;11.584;2022-12-07T05:43:41;2.72;;;2.00;;
42884;SDS011;28534;48.100;11.584;2022-12-07T05:48:44;4.00;;;2.20;;
42884;SDS011;28534;48.100;11.584;2022-12-07T05:53:45;5.68;;;2.08;;
42884;SDS011;28534;48.100;11.584;2022-12-07T05:58:47;5.78;;;2.50;;
42884;SDS011;28534;48.100;11.584;2022-12-07T06:04:08;7.05;;;2.40;;
42884;SDS011;28534;48.100;11.584;2022-12-07T06:09:10;7.82;;;2.78;;
42884;SDS011;28534;48.100;11.584;2022-12-07T06:14:13;14.95;;;3.35;;
42884;SDS011;28534;48.100;11.584;2022-12-07T06:19:16;9.30;;;2.92;;
42884;SDS011;28534;48.100;11.584;2022-12-07T06:24:18;10.88;;;3.40;;
42884;SDS011;28534;48.100;11.584;2022-12-07T06:29:20;10.35;;;3.00;;
42884;SDS011;28534;48.100;11.584;2022-12-07T06:34:23;8.85;;;3.08;;
42884;SDS011;28534;48.100;11.584;2022-12-07T06:39:27;10.00;;;3.15;;
42884;SDS011;28534;48.100;11.584;2022-12-07T06:44:29;12.38;;;3.40;;
42884;SDS011;28534;48.100;11.584;2022-12-07T06:49:32;9.23;;;3.28;;
42884;SDS011;28534;48.100;11.584;2022-12-07T06:54:35;17.33;;;3.55;;
42884;SDS011;28534;48.100;11.584;2022-12-07T06:59:37;7.57;;;3.22;;
42884;SDS011;28534;48.100;11.584;2022-12-07T07:04:40;7.53;;;3.15;;
42884;SDS011;28534;48.100;11.584;2022-12-07T07:09:42;19.35;;;3.08;;
42884;SDS011;28534;48.100;11.584;2022-12-07T07:14:44;8.27;;;2.70;;
42884;SDS011;28534;48.100;11.584;2022-12-07T07:19:47;12.85;;;2.67;;
42884;SDS011;28534;48.100;11.584;2022-12-07T07:24:49;10.27;;;2.75;;
42884;SDS011;28534;48.100;11.584;2022-12-07T07:29:50;8.55;;;2.92;;
42884;SDS011;28534;48.100;11.584;2022-12-07T07:34:53;8.15;;;2.88;;
42884;SDS011;28534;48.100;11.584;2022-12-07T07:39:55;12.38;;;3.00;;
42884;SDS011;28534;48.100;11.584;2022-12-07T07:44:57;10.00;;;2.72;;
42884;SDS011;28534;48.100;11.584;2022-12-07T07:50:00;7.85;;;2.60;;
42884;SDS011;28534;48.100;11.584;2022-12-07T07:55:02;7.65;;;2.70;;
42884;SDS011;28534;48.100;11.584;2022-12-07T08:00:06;11.80;;;2.90;;
42884;SDS011;28534;48.100;11.584;2022-12-07T08:05:11;6.38;;;2.58;;
42884;SDS011;28534;48.100;11.584;2022-12-07T08:10:14;6.00;;;2.40;;
42884;SDS011;28534;48.100;11.584;2022-12-07T08:15:15;7.93;;;2.80;;
42884;SDS011;28534;48.100;11.584;2022-12-07T08:20:19;6.60;;;3.22;;
42884;SDS011;28534;48.100;11.584;2022-12-07T08:25:22;6.75;;;2.67;;
42884;SDS011;28534;48.100;11.584;2022-12-07T08:30:24;5.90;;;2.80;;
42884;SDS011;28534;48.100;11.584;2022-12-07T08:35:27;6.18;;;2.58;;
42884;SDS011;28534;48.100;11.584;2022-12-07T08:40:29;5.80;;;2.55;;
42884;SDS011;28534;48.100;11.584;2022-12-07T08:45:31;9.57;;;3.30;;
42884;SDS011;28534;48.100;11.584;2022-12-07T08:50:36;7.35;;;3.33;;
42884;SDS011;28534;48.100;11.584;2022-12-07T08:55:38;6.95;;;3.00;;
42884;SDS011;28534;48.100;11.584;2022-12-07T09:00:40;5.75;;;3.20;;
42884;SDS011;28534;48.100;11.584;2022-12-07T09:05:43;4.13;;;2.92;;
42884;SDS011;28534;48.100;11.584;2022-12-07T09:10:45;9.55;;;3.40;;
42884;SDS011;28534;48.100;11.584;2022-12-07T09:15:47;9.05;;;3.40;;
42884;SDS011;28534;48.100;11.584;2022-12-07T09:20:50;9.60;;;3.33;;
42884;SDS011;28534;48.100;11.584;2022-12-07T09:25:52;5.82;;;2.80;;
42884;SDS011;28534;48.100;11.584;2022-12-07T09:30:54;7.93;;;3.63;;
42884;SDS011;28534;48.100;11.584;2022-12-07T09:35:57;6.68;;;3.05;;
42884;SDS011;28534;48.100;11.584;2022-12-07T09:41:03;8.63;;;3.25;;
42884;SDS011;28534;48.100;11.584;2022-12-07T09:46:06;7.68;;;3.65;;
42884;SDS011;28534;48.100;11.584;2022-12-07T09:51:14;31.98;;;15.55;;
42884;SDS011;28534;48.100;11.584;2022-12-07T09:56:18;34.00;;;15.05;;
42884;SDS011;28534;48.100;11.584;2022-12-07T10:01:21;24.45;;;11.32;;
42884;SDS011;28534;48.100;11.584;2022-12-07T10:06:24;22.02;;;9.48;;
42884;SDS011;28534;48.100;11.584;2022-12-07T10:11:26;18.90;;;8.88;;
42884;SDS011;28534;48.100;11.584;2022-12-07T10:16:32;19.00;;;9.23;;
42884;SDS011;28534;48.100;11.584;2022-12-07T10:21:39;20.85;;;8.73;;
42884;SDS011;28534;48.100;11.584;2022-12-07T10:26:41;20.17;;;7.65;;
42884;SDS011;28534;48.100;11.584;2022-12-07T10:31:52;14.77;;;7.03;;
42884;SDS011;28534;48.100;11.584;2022-12-07T10:37:13;13.68;;;6.90;;
42884;SDS011;28534;48.100;11.584;2022-12-07T10:42:19;20.73;;;7.50;;
42884;SDS011;28534;48.100;11.584;2022-12-07T10:47:28;13.18;;;7.13;;
42884;SDS011;28534;48.100;11.584;2022-12-07T10:52:44;9.38;;;7.28;;
42884;SDS011;28534;48.100;11.584;2022-12-07T10:57:58;8.88;;;6.63;;
42884;SDS011;28534;48.100;11.584;2022-12-07T11:03:24;5.70;;;4.53;;
42884;SDS011;28534;48.100;11.584;2022-12-07T11:08:42;6.13;;;4.38;;
42884;SDS011;28534;48.100;11.584;2022-12-07T11:13:55;5.47;;;3.88;;
42884;SDS011;28534;48.100;11.584;2022-12-07T11:19:10;3.92;;;3.33;;
42884;SDS011;28534;48.100;11.584;2022-12-07T11:24:24;5.43;;;3.30;;
42884;SDS011;28534;48.100;11.584;2022-12-07T11:29:38;5.07;;;3.35;;
42884;SDS011;28534;48.100;11.584;2022-12-07T11:34:51;4.32;;;2.97;;
42884;SDS011;28534;48.100;11.584;2022-12-07T11:40:11;5.13;;;3.20;;
42884;SDS011;28534;48.100;11.584;2022-12-07T11:45:19;4.05;;;3.08;;
42884;SDS011;28534;48.100;11.584;2022-12-07T11:50:26;5.10;;;3.17;;
42884;SDS011;28534;48.100;11.584;2022-12-07T11:55:38;5.80;;;3.20;;
42884;SDS011;28534;48.100;11.584;2022-12-07T12:00:43;4.07;;;3.20;;
42884;SDS011;28534;48.100;11.584;2022-12-07T12:05:45;5.03;;;2.92;;
42884;SDS011;28534;48.100;11.584;2022-12-07T12:10:51;4.20;;;3.00;;
42884;SDS011;28534;48.100;11.584;2022-12-07T12:16:04;5.53;;;3.28;;
42884;SDS011;28534;48.100;11.584;2022-12-07T12:21:14;8.43;;;3.40;;
42884;SDS011;28534;48.100;11.584;2022-12-07T12:26:20;5.63;;;3.17;;
42884;SDS011;28534;48.100;11.584;2022-12-07T12:31:34;6.28;;;3.05;;
42884;SDS011;28534;48.100;11.584;2022-12-07T12:36:45;7.47;;;3.10;;
42884;SDS011;28534;48.100;11.584;2022-12-07T12:41:53;6.22;;;2.83;;
42884;SDS011;28534;48.100;11.584;2022-12-07T13:03:37;5.20;;;2.92;;
42884;SDS011;28534;48.100;11.584;2022-12-07T13:08:39;6.80;;;3.22;;
42884;SDS011;28534;48.100;11.584;2022-12-07T13:13:44;7.25;;;3.55;;
42884;SDS011;28534;48.100;11.584;2022-12-07T13:18:45;7.53;;;3.80;;
42884;SDS011;28534;48.100;11.584;2022-12-07T13:23:51;5.22;;;2.97;;
42884;SDS011;28534;48.100;11.584;2022-12-07T13:29:04;6.18;;;3.30;;
42884;SDS011;28534;48.100;11.584;2022-12-07T13:34:27;6.07;;;3.20;;
42884;SDS011;28534;48.100;11.584;2022-12-07T13:39:32;7.10;;;3.35;;
42884;SDS011;28534;48.100;11.584;2022-12-07T13:44:39;5.68;;;3.20;;
42884;SDS011;28534;48.100;11.584;2022-12-07T13:49:46;6.72;;;3.33;;
42884;SDS011;28534;48.100;11.584;2022-12-07T13:54:54;7.43;;;2.97;;
42884;SDS011;28534;48.100;11.584;2022-12-07T13:59:59;7.13;;;3.45;;
42884;SDS011;28534;48.100;11.584;2022-12-07T14:05:09;6.75;;;3.13;;
42884;SDS011;28534;48.100;11.584;2022-12-07T14:10:24;8.40;;;3.30;;
42884;SDS011;28534;48.100;11.584;2022-12-07T14:15:29;9.60;;;3.70;;
42884;SDS011;28534;48.100;11.584;2022-12-07T14:20:34;9.27;;;3.05;;
42884;SDS011;28534;48.100;11.584;2022-12-07T14:25:47;9.23;;;3.58;;
42884;SDS011;28534;48.100;11.584;2022-12-07T14:30:51;9.63;;;3.05;;
42884;SDS011;28534;48.100;11.584;2022-12-07T14:35:53;12.00;;;3.50;;
42884;SDS011;28534;48.100;11.584;2022-12-07T14:40:55;10.52;;;3.33;;
42884;SDS011;28534;48.100;11.584;2022-12-07T14:46:20;7.93;;;2.90;;
42884;SDS011;28534;48.100;11.584;2022-12-07T14:51:22;8.45;;;3.28;;
42884;SDS011;28534;48.100;11.584;2022-12-07T14:56:24;10.77;;;3.33;;
42884;SDS011;28534;48.100;11.584;2022-12-07T15:01:27;10.77;;;3.47;;
42884;SDS011;28534;48.100;11.584;2022-12-07T15:06:28;8.60;;;3.35;;
42884;SDS011;28534;48.100;11.584;2022-12-07T15:11:30;9.73;;;3.10;;
42884;SDS011;28534;48.100;11.584;2022-12-07T15:16:34;6.40;;;3.20;;
42884;SDS011;28534;48.100;11.584;2022-12-07T15:21:36;9.50;;;3.22;;
42884;SDS011;28534;48.100;11.584;2022-12-07T15:26:38;4.82;;;2.97;;
42884;SDS011;28534;48.100;11.584;2022-12-07T15:31:42;8.35;;;2.90;;
42884;SDS011;28534;48.100;11.584;2022-12-07T15:36:43;8.25;;;3.17;;
42884;SDS011;28534;48.100;11.584;2022-12-07T15:41:45;5.65;;;2.80;;
42884;SDS011;28534;48.100;11.584;2022-12-07T15:46:48;8.40;;;3.10;;
42884;SDS011;28534;48.100;11.584;2022-12-07T15:51:50;6.25;;;3.03;;
42884;SDS011;28534;48.100;11.584;2022-12-07T15:56:52;7.32;;;3.08;;
42884;SDS011;28534;48.100;11.584;2022-12-07T16:01:56;7.82;;;2.72;;
42884;SDS011;28534;48.100;11.584;2022-12-07T16:06:58;11.15;;;3.42;;
42884;SDS011;28534;48.100;11.584;2022-12-07T16:12:00;8.60;;;3.30;;
42884;SDS011;28534;48.100;11.584;2022-12-07T16:17:03;7.47;;;3.03;;
42884;SDS011;28534;48.100;11.584;2022-12-07T16:22:05;12.25;;;3.60;;
42884;SDS011;28534;48.100;11.584;2022-12-07T16:27:07;9.75;;;3.80;;
42884;SDS011;28534;48.100;11.584;2022-12-07T16:32:10;9.98;;;4.18;;
42884;SDS011;28534;48.100;11.584;2022-12-07T16:37:12;12.77;;;4.22;;
42884;SDS011;28534;48.100;11.584;2022-12-07T16:42:13;7.80;;;4.90;;
42884;SDS011;28534;48.100;11.584;2022-12-07T16:47:16;30.23;;;13.23;;
42884;SDS011;28534;48.100;11.584;2022-12-07T16:52:18;36.25;;;14.68;;
42884;SDS011;28534;48.100;11.584;2022-12-07T16:57:20;40.70;;;15.32;;
42884;SDS011;28534;48.100;11.584;2022-12-07T17:02:23;41.17;;;14.95;;
42884;SDS011;28534;48.100;11.584;2022-12-07T17:07:25;46.25;;;15.38;;
42884;SDS011;28534;48.100;11.584;2022-12-07T17:12:27;27.00;;;11.93;;
42884;SDS011;28534;48.100;11.584;2022-12-07T17:17:30;23.40;;;10.63;;
42884;SDS011;28534;48.100;11.584;2022-12-07T17:22:32;23.95;;;9.82;;
42884;SDS011;28534;48.100;11.584;2022-12-07T17:27:34;25.88;;;10.50;;
42884;SDS011;28534;48.100;11.584;2022-12-07T17:32:37;26.20;;;9.70;;
42884;SDS011;28534;48.100;11.584;2022-12-07T17:37:39;23.23;;;9.50;;
42884;SDS011;28534;48.100;11.584;2022-12-07T17:42:40;20.48;;;9.75;;
42884;SDS011;28534;48.100;11.584;2022-12-07T17:47:48;21.17;;;9.15;;
42884;SDS011;28534;48.100;11.584;2022-12-07T17:52:50;17.33;;;8.73;;
42884;SDS011;28534;48.100;11.584;2022-12-07T17:58:09;19.25;;;8.35;;
42884;SDS011;28534;48.100;11.584;2022-12-07T18:03:12;17.85;;;8.25;;
42884;SDS011;28534;48.100;11.584;2022-12-07T18:08:14;20.60;;;8.45;;
42884;SDS011;28534;48.100;11.584;2022-12-07T18:13:16;17.73;;;9.02;;
42884;SDS011;28534;48.100;11.584;2022-12-07T18:18:37;24.00;;;8.70;;
42884;SDS011;28534;48.100;11.584;2022-12-07T18:23:39;23.35;;;8.70;;
42884;SDS011;28534;48.100;11.584;2022-12-07T18:28:42;20.63;;;8.63;;
42884;SDS011;28534;48.100;11.584;2022-12-07T18:33:46;18.67;;;8.05;;
42884;SDS011;28534;48.100;11.584;2022-12-07T18:38:48;20.05;;;8.18;;
42884;SDS011;28534;48.100;11.584;2022-12-07T18:43:50;17.95;;;8.15;;
42884;SDS011;28534;48.100;11.584;2022-12-07T18:48:53;20.02;;;8.50;;
42884;SDS011;28534;48.100;11.584;2022-12-07T18:53:56;15.35;;;7.90;;
42884;SDS011;28534;48.100;11.584;2022-12-07T18:59:00;17.52;;;6.95;;
42884;SDS011;28534;48.100;11.584;2022-12-07T19:04:21;21.75;;;7.88;;
42884;SDS011;28534;48.100;11.584;2022-12-07T19:09:23;17.20;;;7.88;;
42884;SDS011;28534;48.100;11.584;2022-12-07T19:14:26;20.63;;;7.88;;
42884;SDS011;28534;48.100;11.584;2022-12-07T19:19:31;19.58;;;7.68;;
42884;SDS011;28534;48.100;11.584;2022-12-07T19:24:35;16.23;;;7.55;;
42884;SDS011;28534;48.100;11.584;2022-12-07T19:29:37;17.75;;;7.30;;
42884;SDS011;28534;48.100;11.584;2022-12-07T19:34:41;17.20;;;7.53;;
42884;SDS011;28534;48.100;11.584;2022-12-07T19:39:43;15.23;;;7.63;;
42884;SDS011;28534;48.100;11.584;2022-12-07T19:44:47;14.13;;;6.72;;
42884;SDS011;28534;48.100;11.584;2022-12-07T19:49:50;12.27;;;10.10;;
42884;SDS011;28534;48.100;11.584;2022-12-07T19:54:52;11.85;;;8.30;;
42884;SDS011;28534;48.100;11.584;2022-12-07T19:59:54;11.82;;;7.50;;
42884;SDS011;28534;48.100;11.584;2022-12-07T20:04:57;11.40;;;7.05;;
42884;SDS011;28534;48.100;11.584;2022-12-07T20:09:59;8.95;;;6.40;;
42884;SDS011;28534;48.100;11.584;2022-12-07T20:15:01;8.23;;;6.20;;
42884;SDS011;28534;48.100;11.584;2022-12-07T20:20:05;11.40;;;6.15;;
42884;SDS011;28534;48.100;11.584;2022-12-07T20:25:07;8.35;;;5.63;;
42884;SDS011;28534;48.100;11.584;2022-12-07T20:30:10;7.68;;;5.85;;
42884;SDS011;28534;48.100;11.584;2022-12-07T20:35:13;9.75;;;6.22;;
42884;SDS011;28534;48.100;11.584;2022-12-07T20:40:15;8.82;;;5.82;;
42884;SDS011;28534;48.100;11.584;2022-12-07T20:45:16;7.40;;;5.20;;
42884;SDS011;28534;48.100;11.584;2022-12-07T20:50:20;7.60;;;5.53;;
42884;SDS011;28534;48.100;11.584;2022-12-07T20:55:22;7.72;;;5.15;;
42884;SDS011;28534;48.100;11.584;2022-12-07T21:00:23;6.95;;;5.13;;
42884;SDS011;28534;48.100;11.584;2022-12-07T21:05:27;5.75;;;5.03;;
42884;SDS011;28534;48.100;11.584;2022-12-07T21:10:28;7.53;;;5.53;;
42884;SDS011;28534;48.100;11.584;2022-12-07T21:15:30;7.10;;;5.10;;
42884;SDS011;28534;48.100;11.584;2022-12-07T21:20:33;7.32;;;4.60;;
42884;SDS011;28534;48.100;11.584;2022-12-07T21:25:35;6.72;;;4.80;;
42884;SDS011;28534;48.100;11.584;2022-12-07T21:30:37;7.20;;;4.95;;
42884;SDS011;28534;48.100;11.584;2022-12-07T21:35:41;5.95;;;4.50;;
42884;SDS011;28534;48.100;11.584;2022-12-07T21:40:42;7.20;;;4.70;;
42884;SDS011;28534;48.100;11.584;2022-12-07T21:45:48;6.38;;;4.80;;
42884;SDS011;28534;48.100;11.584;2022-12-07T21:50:52;5.88;;;4.15;;
42884;SDS011;28534;48.100;11.584;2022-12-07T21:55:53;6.90;;;4.43;;
